Time;durP1;ratioP1;P1;durP2;ratioP2;P2;SDS_P1;SDS_P2;PMS_P1;PMS_P2;Temp;Humidity;BMP_temperature;BMP_pressure;BME280_temperature;BME280_humidity;BME280_pressure;Samples;Min_cycle;Max_cycle;Signal;HPM_P1;HPM_P2
2024/01/21 00:01:59;;;;;;;2.88;2.70;;;-0.10;99.90;;;;;;4964191;28;20207;-83
2024/01/21 00:04:26;;;;;;;1.35;1.35;;;-0.20;99.90;;;;;;4982161;28;20217;-82
2024/01/21 00:06:53;;;;;;;1.40;1.40;;;-0.20;99.90;;;;;;4981231;28;20202;-81
2024/01/21 00:09:20;;;;;;;0.65;0.65;;;-0.20;99.90;;;;;;4981636;28;20210;-82
2024/01/21 00:11:47;;;;;;;1.13;1.13;;;-0.20;99.90;;;;;;4975807;28;20207;-82
2024/01/21 00:14:17;;;;;;;1.08;1.08;;;-0.30;99.90;;;;;;4963514;28;20245;-82
2024/01/21 00:16:44;;;;;;;2.15;1.58;;;-0.20;99.90;;;;;;4962840;28;20211;-80
2024/01/21 00:19:12;;;;;;;3.55;3.15;;;-0.20;99.90;;;;;;4970845;28;20286;-83
2024/01/21 00:21:39;;;;;;;0.40;0.40;;;-0.30;99.90;;;;;;4981734;28;20207;-82
2024/01/21 00:24:07;;;;;;;1.10;1.10;;;-0.20;99.90;;;;;;4964848;28;20211;-84
2024/01/21 00:26:33;;;;;;;1.55;1.55;;;-0.20;99.90;;;;;;4961051;28;20254;-82
2024/01/21 00:29:01;;;;;;;2.33;2.15;;;-0.20;99.90;;;;;;4980324;28;20207;-83
2024/01/21 00:31:29;;;;;;;1.05;1.05;;;-0.20;99.90;;;;;;4963177;28;20258;-84
2024/01/21 00:33:56;;;;;;;2.95;2.75;;;-0.20;99.90;;;;;;4986244;28;20238;-84
2024/01/21 00:36:27;;;;;;;0.77;0.77;;;-0.30;99.90;;;;;;4957883;28;20278;-83
2024/01/21 00:38:55;;;;;;;1.23;1.23;;;-0.20;99.90;;;;;;4957024;28;20581;-81
2024/01/21 00:41:22;;;;;;;0.88;0.88;;;-0.20;99.90;;;;;;4977002;28;20278;-82
2024/01/21 00:43:49;;;;;;;3.30;3.10;;;-0.20;99.90;;;;;;4976200;28;20206;-83
2024/01/21 00:46:18;;;;;;;5.28;4.82;;;-0.30;99.90;;;;;;4977691;28;20558;-82
2024/01/21 00:48:45;;;;;;;0.77;0.77;;;-0.20;99.90;;;;;;4978961;28;20249;-83
2024/01/21 00:51:13;;;;;;;0.60;0.60;;;-0.20;99.90;;;;;;4972778;28;20258;-85
2024/01/21 00:53:41;;;;;;;0.50;0.50;;;-0.20;99.90;;;;;;4980783;28;20238;-82
2024/01/21 00:56:08;;;;;;;1.05;1.05;;;-0.30;99.90;;;;;;4974154;28;20214;-82
2024/01/21 00:58:35;;;;;;;2.33;2.17;;;-0.20;99.90;;;;;;4962044;28;20270;-81
2024/01/21 01:01:02;;;;;;;0.80;0.80;;;-0.20;99.90;;;;;;4980916;28;20274;-82
2024/01/21 01:03:30;;;;;;;5.55;1.35;;;-0.20;99.90;;;;;;4977507;28;20199;-82
2024/01/21 01:05:59;;;;;;;0.80;0.80;;;-0.20;99.90;;;;;;4979381;28;20198;-82
2024/01/21 01:08:26;;;;;;;3.80;1.95;;;-0.20;99.90;;;;;;4972711;28;20542;-82
2024/01/21 01:10:53;;;;;;;0.50;0.50;;;-0.20;99.90;;;;;;4976611;28;20230;-83
2024/01/21 01:13:20;;;;;;;11.70;1.92;;;-0.20;99.90;;;;;;4966376;28;20454;-83
2024/01/21 01:15:48;;;;;;;1.55;1.45;;;-0.20;99.90;;;;;;4985496;28;20198;-83
2024/01/21 01:18:15;;;;;;;3.28;3.08;;;-0.20;99.90;;;;;;4989617;28;20246;-79
2024/01/21 01:20:43;;;;;;;0.50;0.50;;;-0.10;99.90;;;;;;4995286;28;20222;-80
2024/01/21 01:23:10;;;;;;;0.98;0.98;;;-0.10;99.90;;;;;;4992889;28;20211;-82
2024/01/21 01:25:37;;;;;;;0.80;0.80;;;-0.20;99.90;;;;;;4985316;28;20206;-82
2024/01/21 01:28:05;;;;;;;2.78;2.58;;;-0.20;99.90;;;;;;4982120;28;20286;-82
2024/01/21 01:30:32;;;;;;;2.72;0.90;;;-0.20;99.90;;;;;;4964122;28;20230;-80
2024/01/21 01:33:02;;;;;;;0.95;0.95;;;-0.10;99.90;;;;;;4977319;28;20850;-81
2024/01/21 01:35:29;;;;;;;1.05;1.05;;;-0.10;99.90;;;;;;4977136;28;20508;-81
2024/01/21 01:37:56;;;;;;;0.60;0.60;;;-0.20;99.90;;;;;;4969325;28;20309;-81
2024/01/21 01:40:24;;;;;;;1.48;1.40;;;-0.20;99.90;;;;;;4966729;28;20217;-80
2024/01/21 01:42:57;;;;;;;0.50;0.50;;;-0.30;99.90;;;;;;4989656;28;20199;-80
2024/01/21 01:45:25;;;;;;;0.50;0.50;;;-0.20;99.90;;;;;;4994661;28;20230;-81
2024/01/21 01:47:52;;;;;;;0.60;0.60;;;-0.40;99.90;;;;;;4997210;28;20245;-81
2024/01/21 01:50:20;;;;;;;10.60;3.08;;;-0.40;99.90;;;;;;4997536;28;20246;-81
2024/01/21 01:52:48;;;;;;;0.93;0.93;;;-0.40;99.90;;;;;;4991597;28;20226;-80
2024/01/21 01:55:15;;;;;;;2.00;1.90;;;-0.40;99.90;;;;;;4982004;28;20217;-80
2024/01/21 01:57:44;;;;;;;0.90;0.90;;;-0.30;99.90;;;;;;4980150;28;20534;-80
2024/01/21 02:00:12;;;;;;;3.97;3.15;;;-0.40;99.90;;;;;;4980340;28;20215;-80
2024/01/21 02:02:42;;;;;;;0.50;0.50;;;-0.40;99.90;;;;;;4956747;28;20234;-81
2024/01/21 02:05:09;;;;;;;2.08;1.98;;;-0.30;99.90;;;;;;4972440;28;20232;-81
2024/01/21 02:07:36;;;;;;;1.05;1.05;;;-0.30;99.90;;;;;;4980164;28;20211;-80
2024/01/21 02:10:04;;;;;;;0.60;0.60;;;-0.40;99.90;;;;;;4954648;28;20238;-81
2024/01/21 02:12:31;;;;;;;3.92;1.05;;;-0.40;99.90;;;;;;4975134;28;20231;-80
2024/01/21 02:14:58;;;;;;;0.73;0.73;;;-0.30;99.90;;;;;;4977112;28;20207;-79
2024/01/21 02:17:25;;;;;;;2.05;1.95;;;-0.30;99.90;;;;;;4991467;28;20238;-80
2024/01/21 02:19:52;;;;;;;1.60;1.55;;;-0.40;99.90;;;;;;4995020;28;20233;-79
2024/01/21 02:22:23;;;;;;;2.08;1.98;;;-0.40;99.90;;;;;;4989765;28;20226;-81
2024/01/21 02:24:50;;;;;;;1.20;1.20;;;-0.40;99.90;;;;;;4968247;28;20230;-81
2024/01/21 02:27:18;;;;;;;1.92;1.83;;;-0.50;99.90;;;;;;4991463;28;20237;-83
2024/01/21 02:29:45;;;;;;;2.53;2.33;;;-0.50;99.90;;;;;;4984577;28;20406;-82
2024/01/21 02:32:12;;;;;;;1.17;1.08;;;-0.60;99.90;;;;;;4975519;28;20239;-82
2024/01/21 02:34:38;;;;;;;1.83;1.73;;;-0.70;99.90;;;;;;4992236;28;20599;-81
2024/01/21 02:37:05;;;;;;;1.08;1.08;;;-0.80;99.90;;;;;;4984149;28;20211;-82
2024/01/21 02:39:32;;;;;;;1.40;1.40;;;-0.80;99.90;;;;;;4975484;28;20381;-82
2024/01/21 02:41:59;;;;;;;0.50;0.50;;;-0.90;99.90;;;;;;4977557;28;20275;-82
2024/01/21 02:44:26;;;;;;;3.78;3.50;;;-1.10;99.90;;;;;;4979115;28;20198;-81
2024/01/21 02:46:53;;;;;;;1.27;1.23;;;-1.20;99.90;;;;;;4969953;28;20270;-81
2024/01/21 02:49:23;;;;;;;1.80;1.70;;;-1.40;99.90;;;;;;4978175;28;20211;-81
2024/01/21 02:51:50;;;;;;;1.02;1.02;;;-1.50;99.90;;;;;;4957573;29;20243;-80
2024/01/21 02:54:19;;;;;;;0.98;0.98;;;-1.60;99.90;;;;;;4972976;28;20290;-80
2024/01/21 02:56:46;;;;;;;4.00;3.70;;;-1.70;99.90;;;;;;4967551;28;20403;-81
2024/01/21 02:59:13;;;;;;;1.27;1.27;;;-1.80;99.90;;;;;;4967562;28;20279;-80
2024/01/21 03:01:43;;;;;;;4.13;2.85;;;-1.90;99.90;;;;;;4971972;28;20597;-80
2024/01/21 03:04:11;;;;;;;2.15;2.05;;;-2.00;99.90;;;;;;4967748;28;20215;-80
2024/01/21 03:06:39;;;;;;;1.27;0.98;;;-2.10;99.90;;;;;;4978595;28;20199;-81
2024/01/21 03:09:06;;;;;;;6.00;5.47;;;-2.20;99.90;;;;;;4957086;29;20492;-81
2024/01/21 03:11:35;;;;;;;2.85;2.65;;;-2.30;99.90;;;;;;4973282;28;20238;-80
2024/01/21 03:14:02;;;;;;;6.07;2.80;;;-2.30;99.90;;;;;;4975010;28;20208;-81
2024/01/21 03:16:30;;;;;;;7.68;1.08;;;-2.30;99.90;;;;;;4980261;28;20274;-81
2024/01/21 03:18:57;;;;;;;1.92;1.83;;;-2.40;99.90;;;;;;4979336;28;20262;-81
2024/01/21 03:21:25;;;;;;;1.67;1.55;;;-2.20;99.90;;;;;;4974625;28;20229;-80
2024/01/21 03:23:53;;;;;;;2.88;1.95;;;-2.40;99.90;;;;;;4982245;28;20254;-81
2024/01/21 03:26:20;;;;;;;8.40;2.40;;;-2.30;99.90;;;;;;4964373;28;20218;-80
2024/01/21 03:28:47;;;;;;;2.97;2.85;;;-2.20;99.90;;;;;;4976849;28;20524;-82
2024/01/21 03:31:18;;;;;;;3.53;3.28;;;-2.20;99.90;;;;;;4979178;28;20234;-83
2024/01/21 03:33:46;;;;;;;2.03;1.90;;;-2.40;99.90;;;;;;4984011;28;20452;-82
2024/01/21 03:36:14;;;;;;;1.15;1.15;;;-2.40;99.90;;;;;;4983819;28;20592;-83
2024/01/21 03:38:44;;;;;;;1.33;1.33;;;-2.50;99.90;;;;;;4976717;28;20246;-83
2024/01/21 03:41:12;;;;;;;1.80;1.70;;;-2.60;99.90;;;;;;4985670;28;20218;-84
2024/01/21 03:43:39;;;;;;;2.28;2.03;;;-2.60;99.90;;;;;;4963923;28;20239;-83
2024/01/21 03:46:09;;;;;;;1.92;1.67;;;-2.70;99.90;;;;;;4976271;28;20195;-83
2024/01/21 03:48:39;;;;;;;4.18;3.88;;;-2.70;99.90;;;;;;4981399;28;20282;-83
2024/01/21 03:51:12;;;;;;;1.40;1.40;;;-2.70;99.90;;;;;;4954214;28;20577;-82
2024/01/21 03:53:41;;;;;;;2.72;2.63;;;-2.80;99.90;;;;;;4955042;28;20388;-83
2024/01/21 03:56:15;;;;;;;2.22;2.13;;;-2.80;99.90;;;;;;4985092;28;20215;-84
2024/01/21 03:58:44;;;;;;;1.25;1.25;;;-2.80;99.90;;;;;;4992889;28;20192;-82
2024/01/21 04:01:11;;;;;;;2.00;1.90;;;-2.80;99.90;;;;;;4981581;28;20411;-83
2024/01/21 04:03:38;;;;;;;1.75;1.60;;;-2.90;99.90;;;;;;4973626;28;20546;-83
2024/01/21 04:06:05;;;;;;;1.13;1.08;;;-2.70;99.90;;;;;;4980641;28;20208;-83
2024/01/21 04:08:33;;;;;;;1.73;1.65;;;-2.80;99.90;;;;;;4999440;28;20198;-83
2024/01/21 04:11:00;;;;;;;1.30;1.30;;;-2.90;99.90;;;;;;4974192;28;20216;-84
2024/01/21 04:13:29;;;;;;;4.40;3.60;;;-2.80;99.90;;;;;;4982187;28;20199;-81
2024/01/21 04:15:56;;;;;;;1.42;1.42;;;-2.80;99.90;;;;;;4998513;28;20230;-81
2024/01/21 04:18:23;;;;;;;0.50;0.50;;;-2.90;99.90;;;;;;4978288;28;20211;-80
2024/01/21 04:20:50;;;;;;;1.60;1.38;;;-2.90;99.90;;;;;;4981770;28;20225;-79
2024/01/21 04:23:17;;;;;;;0.85;0.85;;;-2.90;99.90;;;;;;4981880;28;20237;-80
2024/01/21 04:25:46;;;;;;;3.67;2.78;;;-2.90;99.90;;;;;;4974103;28;20215;-80
2024/01/21 04:28:13;;;;;;;1.83;1.80;;;-3.00;99.90;;;;;;4980611;28;20229;-81
2024/01/21 04:30:40;;;;;;;3.60;3.40;;;-3.00;99.90;;;;;;4979060;28;20239;-81
2024/01/21 04:33:07;;;;;;;0.85;0.85;;;-3.00;99.90;;;;;;4976787;28;20622;-82
2024/01/21 04:35:39;;;;;;;3.47;3.17;;;-3.00;99.90;;;;;;4981724;28;20258;-83
2024/01/21 04:38:06;;;;;;;2.28;1.95;;;-2.90;99.90;;;;;;4973633;28;20239;-83
2024/01/21 04:40:33;;;;;;;18.80;5.95;;;-3.00;99.90;;;;;;4980498;28;20238;-85
2024/01/21 04:43:00;;;;;;;3.70;2.80;;;-3.00;99.90;;;;;;4977238;28;20214;-84
2024/01/21 04:45:27;;;;;;;30.63;4.43;;;-3.10;99.90;;;;;;4974421;28;20207;-85
2024/01/21 04:47:54;;;;;;;3.97;2.15;;;-3.10;99.90;;;;;;4960148;28;20705;-84
2024/01/21 04:50:21;;;;;;;19.52;4.15;;;-2.90;99.90;;;;;;4962886;28;20211;-84
2024/01/21 04:52:53;;;;;;;5.38;3.65;;;-2.90;99.90;;;;;;4980189;28;20203;-84
2024/01/21 04:55:20;;;;;;;9.38;3.45;;;-2.70;99.90;;;;;;4989656;28;20218;-84
2024/01/21 04:57:47;;;;;;;2.72;2.53;;;-2.70;99.90;;;;;;4972841;28;20206;-85
2024/01/21 05:00:15;;;;;;;6.47;5.88;;;-2.50;99.90;;;;;;4981307;28;20203;-85
2024/01/21 05:02:42;;;;;;;9.52;7.20;;;-2.60;99.90;;;;;;4985042;28;20193;-85
2024/01/21 05:05:09;;;;;;;8.75;4.40;;;-2.70;99.90;;;;;;4989642;28;20632;-86
2024/01/21 05:07:37;;;;;;;18.10;3.10;;;-2.90;99.90;;;;;;4982986;28;20253;-87
2024/01/21 05:10:05;;;;;;;6.45;5.47;;;-2.70;99.90;;;;;;4968406;28;20207;-85
2024/01/21 05:12:32;;;;;;;3.42;3.22;;;-2.70;99.90;;;;;;4969234;28;20222;-85
2024/01/21 05:15:00;;;;;;;3.40;3.10;;;-2.80;99.90;;;;;;4982127;28;20397;-85
2024/01/21 05:17:27;;;;;;;1.98;1.88;;;-2.70;99.90;;;;;;4982070;28;20207;-84
2024/01/21 05:19:54;;;;;;;4.47;4.18;;;-2.80;99.90;;;;;;4981707;28;20246;-85
2024/01/21 05:22:21;;;;;;;10.07;4.78;;;-2.70;99.90;;;;;;4982351;28;20308;-85
2024/01/21 05:24:50;;;;;;;5.43;4.88;;;-2.90;99.90;;;;;;4973696;28;20239;-83
2024/01/21 05:27:19;;;;;;;1.85;1.75;;;-3.10;99.90;;;;;;4974398;28;20203;-86
2024/01/21 05:29:46;;;;;;;2.88;1.90;;;-3.10;99.90;;;;;;4967822;28;20213;-85
2024/01/21 05:32:14;;;;;;;3.85;3.65;;;-3.20;99.90;;;;;;4973779;28;20594;-86
2024/01/21 05:34:41;;;;;;;1.30;1.20;;;-3.30;99.90;;;;;;4983441;28;20459;-87
2024/01/21 05:37:09;;;;;;;2.38;2.28;;;-3.40;99.90;;;;;;4964156;28;20215;-86
2024/01/21 05:39:37;;;;;;;6.47;4.03;;;-3.40;99.90;;;;;;4980389;28;20215;-86
2024/01/21 05:42:06;;;;;;;2.17;1.98;;;-3.30;99.90;;;;;;4980238;28;20218;-84
2024/01/21 05:44:37;;;;;;;4.93;3.53;;;-3.40;99.90;;;;;;4966881;28;20522;-87
2024/01/21 05:47:04;;;;;;;4.07;3.78;;;-3.40;99.90;;;;;;4967899;28;20266;-86
2024/01/21 05:49:33;;;;;;;1.40;1.40;;;-3.40;99.90;;;;;;4980101;28;20200;-84
2024/01/21 05:52:01;;;;;;;1.80;1.75;;;-3.30;99.90;;;;;;4985111;28;20250;-85
2024/01/21 05:54:30;;;;;;;1.20;1.10;;;-3.10;99.90;;;;;;4993544;28;20190;-88
2024/01/21 05:56:58;;;;;;;3.35;3.15;;;-3.10;99.90;;;;;;4987725;28;20207;-88
2024/01/21 05:59:25;;;;;;;8.65;4.15;;;-3.10;99.90;;;;;;4987884;28;20275;-87
2024/01/21 06:01:53;;;;;;;2.75;2.55;;;-3.10;99.90;;;;;;4972658;28;20217;-85
2024/01/21 06:04:21;;;;;;;2.78;2.58;;;-3.10;99.90;;;;;;4984390;28;20245;-87
2024/01/21 06:06:50;;;;;;;3.22;3.13;;;-3.20;99.90;;;;;;4982938;28;20231;-83
2024/01/21 06:09:17;;;;;;;3.63;3.38;;;-3.20;99.90;;;;;;4963470;28;20203;-83
2024/01/21 06:11:44;;;;;;;6.40;5.32;;;-3.20;99.90;;;;;;4973057;28;20227;-83
2024/01/21 06:14:12;;;;;;;3.40;3.20;;;-3.20;99.90;;;;;;4975370;28;20249;-84
2024/01/21 06:16:40;;;;;;;2.13;2.03;;;-3.20;99.90;;;;;;4981200;28;20198;-87
2024/01/21 06:19:08;;;;;;;3.50;3.25;;;-3.30;99.90;;;;;;4975411;28;20235;-82
2024/01/21 06:21:45;;;;;;;4.05;3.85;;;-3.30;99.90;;;;;;4961304;28;20222;-86
2024/01/21 06:24:13;;;;;;;2.17;2.08;;;-3.40;99.90;;;;;;4983186;28;20202;-85
2024/01/21 06:26:40;;;;;;;5.32;2.83;;;-3.40;99.90;;;;;;4976799;28;20211;-87
2024/01/21 06:29:07;;;;;;;1.50;1.42;;;-3.40;99.90;;;;;;4978077;28;20211;-87
2024/01/21 06:31:35;;;;;;;1.15;1.15;;;-3.50;99.90;;;;;;4975994;28;20259;-84
2024/01/21 06:34:02;;;;;;;1.83;1.73;;;-3.50;99.90;;;;;;4984060;28;20250;-83
2024/01/21 06:36:29;;;;;;;7.00;6.50;;;-3.60;99.90;;;;;;4985083;28;20218;-87
2024/01/21 06:38:56;;;;;;;4.75;4.45;;;-3.40;99.90;;;;;;4992267;28;20200;-83
2024/01/21 06:41:24;;;;;;;3.55;3.35;;;-3.50;99.90;;;;;;4991926;28;20242;-84
2024/01/21 06:43:50;;;;;;;7.63;3.95;;;-3.40;99.90;;;;;;4975806;28;20203;-80
2024/01/21 06:46:18;;;;;;;4.82;4.43;;;-3.50;99.90;;;;;;4969466;28;20471;-82
2024/01/21 06:48:46;;;;;;;5.50;5.03;;;-3.50;99.90;;;;;;4976652;28;20245;-82
2024/01/21 06:51:30;;;;;;;2.67;2.55;;;-3.60;99.90;;;;;;4977130;28;20199;-81
2024/01/21 06:53:59;;;;;;;4.55;3.75;;;-3.70;99.90;;;;;;4971989;28;20203;-81
2024/01/21 06:56:26;;;;;;;3.63;3.42;;;-3.60;99.90;;;;;;4975484;28;20403;-81
2024/01/21 06:58:54;;;;;;;4.22;4.03;;;-3.70;99.90;;;;;;4973991;28;20210;-82
2024/01/21 07:01:22;;;;;;;4.47;4.07;;;-3.60;99.90;;;;;;4979742;28;20238;-82
2024/01/21 07:03:50;;;;;;;2.30;2.15;;;-3.50;99.90;;;;;;4977076;28;20262;-83
2024/01/21 07:06:18;;;;;;;6.68;6.05;;;-3.50;99.90;;;;;;4977999;28;20211;-82
2024/01/21 07:08:48;;;;;;;3.70;3.40;;;-3.50;99.90;;;;;;4977834;28;20238;-80
2024/01/21 07:11:18;;;;;;;3.47;3.28;;;-3.40;99.90;;;;;;4978295;28;20286;-81
2024/01/21 07:13:46;;;;;;;22.85;9.07;;;-3.30;99.90;;;;;;4975077;28;20217;-81
2024/01/21 07:16:13;;;;;;;21.65;6.75;;;-3.20;99.90;;;;;;4978125;28;20210;-82
2024/01/21 07:18:40;;;;;;;3.50;3.20;;;-3.20;99.90;;;;;;4961092;28;20241;-88
2024/01/21 07:21:08;;;;;;;4.20;3.80;;;-3.10;99.90;;;;;;4963902;28;20250;-89
2024/01/21 07:23:38;;;;;;;7.78;6.93;;;-3.10;99.90;;;;;;4969537;28;20648;-84
2024/01/21 07:26:05;;;;;;;2.17;1.98;;;-2.90;99.90;;;;;;4978691;28;20237;-86
2024/01/21 07:28:33;;;;;;;1.67;1.52;;;-2.70;99.90;;;;;;4980675;28;20226;-85
2024/01/21 07:31:00;;;;;;;1.15;1.15;;;-2.60;99.90;;;;;;4963824;28;20390;-84
2024/01/21 07:33:28;;;;;;;1.55;1.45;;;-2.50;99.90;;;;;;4971473;28;20259;-83
2024/01/21 07:36:03;;;;;;;2.00;1.90;;;-2.50;99.90;;;;;;4984573;28;20209;-83
2024/01/21 07:38:30;;;;;;;2.20;2.05;;;-2.30;99.90;;;;;;4967046;28;20195;-83
2024/01/21 07:40:58;;;;;;;0.95;0.95;;;-2.40;99.90;;;;;;4972513;28;20255;-82
2024/01/21 07:43:26;;;;;;;5.55;3.63;;;-2.40;99.90;;;;;;4970980;28;20458;-82
2024/01/21 07:45:55;;;;;;;4.25;3.95;;;-2.30;99.90;;;;;;4972395;28;20561;-82
2024/01/21 07:48:23;;;;;;;2.75;2.55;;;-2.30;99.90;;;;;;4975989;28;20211;-81
2024/01/21 07:50:51;;;;;;;1.80;1.75;;;-2.40;99.90;;;;;;4978842;28;20461;-83
2024/01/21 07:53:20;;;;;;;2.78;2.65;;;-2.40;99.90;;;;;;4951654;28;20463;-82
2024/01/21 07:55:49;;;;;;;2.22;2.13;;;-2.40;99.90;;;;;;4975580;28;20216;-82
2024/01/21 07:58:18;;;;;;;12.52;4.63;;;-2.40;99.90;;;;;;4981886;28;20221;-84
2024/01/21 08:00:49;;;;;;;6.13;3.88;;;-2.30;99.90;;;;;;4980628;28;20278;-87
2024/01/21 08:03:18;;;;;;;7.35;2.60;;;-2.20;99.90;;;;;;4977407;28;20386;-83
2024/01/21 08:05:45;;;;;;;5.00;3.67;;;-1.90;99.90;;;;;;4985554;28;20273;-83
2024/01/21 08:08:13;;;;;;;4.25;4.00;;;-2.10;99.90;;;;;;4982941;28;20207;-85
2024/01/21 08:10:43;;;;;;;4.55;4.03;;;-2.40;99.90;;;;;;4983178;28;20262;-84
2024/01/21 08:13:11;;;;;;;1.75;1.65;;;-2.40;99.90;;;;;;4988357;28;20337;-87
2024/01/21 08:15:39;;;;;;;4.10;3.80;;;-2.30;99.90;;;;;;4960250;28;20285;-81
2024/01/21 08:18:09;;;;;;;6.80;4.55;;;-2.20;99.90;;;;;;4979334;28;20206;-81
2024/01/21 08:20:36;;;;;;;2.10;1.90;;;-2.10;99.90;;;;;;4981804;28;20558;-82
2024/01/21 08:23:04;;;;;;;8.63;3.25;;;-2.00;99.90;;;;;;4981608;28;20203;-82
2024/01/21 08:25:32;;;;;;;5.15;4.75;;;-2.00;99.90;;;;;;4982527;28;20515;-81
2024/01/21 08:28:03;;;;;;;7.03;5.35;;;-1.90;99.90;;;;;;4987546;28;20204;-80
2024/01/21 08:30:30;;;;;;;2.92;2.78;;;-1.90;99.90;;;;;;4980666;28;20309;-81
2024/01/21 08:32:58;;;;;;;2.55;2.45;;;-2.00;99.90;;;;;;4979456;28;20235;-81
2024/01/21 08:35:25;;;;;;;2.17;2.08;;;-1.90;99.90;;;;;;4979235;28;20215;-81
2024/01/21 08:37:52;;;;;;;4.35;2.45;;;-1.80;99.90;;;;;;4964183;28;20207;-80
2024/01/21 08:40:19;;;;;;;2.10;2.00;;;-1.70;99.90;;;;;;4980474;28;20403;-79
2024/01/21 08:42:46;;;;;;;5.93;3.20;;;-1.80;99.90;;;;;;4975853;28;20210;-80
2024/01/21 08:45:13;;;;;;;2.83;2.22;;;-1.70;99.90;;;;;;4963048;28;20226;-83
2024/01/21 08:47:40;;;;;;;2.67;2.47;;;-1.60;99.90;;;;;;4970368;28;20240;-82
2024/01/21 08:50:09;;;;;;;4.75;4.15;;;-1.60;99.90;;;;;;4979569;28;20203;-79
2024/01/21 08:52:53;;;;;;;3.20;3.10;;;-1.50;99.90;;;;;;4982663;28;20220;-80
2024/01/21 08:55:20;;;;;;;5.05;4.75;;;-1.40;99.90;;;;;;4978016;28;20558;-78
2024/01/21 08:57:47;;;;;;;4.00;3.70;;;0.70;99.90;;;;;;4957573;28;20210;-79
2024/01/21 09:00:15;;;;;;;10.40;3.53;;;2.10;99.90;;;;;;4977935;28;20403;-79
2024/01/21 09:02:43;;;;;;;6.05;5.57;;;2.10;99.90;;;;;;4974984;28;20206;-81
2024/01/21 09:05:10;;;;;;;2.33;2.22;;;2.70;99.90;;;;;;4958026;28;20246;-81
2024/01/21 09:07:39;;;;;;;7.40;6.88;;;2.50;99.90;;;;;;4980006;28;20203;-80
2024/01/21 09:10:09;;;;;;;2.42;2.25;;;2.90;99.90;;;;;;4973000;28;20407;-82
2024/01/21 09:12:36;;;;;;;4.13;2.47;;;2.50;99.90;;;;;;4983216;28;20234;-80
2024/01/21 09:15:05;;;;;;;10.48;9.73;;;0.70;99.90;;;;;;4978148;28;20226;-79
2024/01/21 09:17:34;;;;;;;4.18;3.78;;;0.00;99.90;;;;;;4963169;28;20202;-83
2024/01/21 09:20:02;;;;;;;1.00;1.00;;;-0.30;99.90;;;;;;4958357;28;20277;-80
2024/01/21 09:22:30;;;;;;;3.28;3.05;;;-0.30;99.90;;;;;;4981490;28;20238;-80
2024/01/21 09:24:57;;;;;;;2.10;1.98;;;-0.30;99.90;;;;;;4973299;28;20203;-81
2024/01/21 09:27:24;;;;;;;3.33;2.83;;;-0.50;99.90;;;;;;4982352;28;20203;-79
2024/01/21 09:29:50;;;;;;;3.15;2.95;;;-0.30;99.90;;;;;;4980475;28;20206;-80
2024/01/21 09:32:17;;;;;;;4.53;4.22;;;-0.20;99.90;;;;;;4979213;28;20227;-80
2024/01/21 09:34:45;;;;;;;3.70;3.40;;;-0.20;99.90;;;;;;4980679;28;20210;-81
2024/01/21 09:37:12;;;;;;;5.45;2.35;;;0.00;99.90;;;;;;4976946;28;20213;-79
2024/01/21 09:39:40;;;;;;;1.63;1.63;;;-0.10;99.90;;;;;;4972808;28;20214;-83
2024/01/21 09:42:08;;;;;;;3.63;3.30;;;0.00;99.90;;;;;;4972234;28;20214;-81
2024/01/21 09:44:38;;;;;;;3.20;3.00;;;0.10;99.90;;;;;;4965188;28;20266;-82
2024/01/21 09:47:06;;;;;;;2.28;2.17;;;0.20;99.90;;;;;;4970765;28;20396;-79
2024/01/21 09:49:33;;;;;;;18.70;3.90;;;0.20;99.90;;;;;;4943580;29;20250;-80
2024/01/21 09:52:02;;;;;;;2.75;2.60;;;0.20;99.90;;;;;;4974848;28;20529;-82
2024/01/21 09:54:29;;;;;;;2.83;2.63;;;0.30;99.90;;;;;;4971910;28;20270;-79
2024/01/21 09:56:57;;;;;;;1.38;1.38;;;0.30;99.90;;;;;;4979022;28;20277;-78
2024/01/21 09:59:24;;;;;;;1.90;1.80;;;0.30;99.90;;;;;;4981543;28;20245;-79
2024/01/21 10:01:52;;;;;;;6.22;5.72;;;0.30;99.90;;;;;;4970826;28;20198;-81
2024/01/21 10:04:20;;;;;;;0.95;0.95;;;0.30;99.90;;;;;;4957807;29;20238;-82
2024/01/21 10:06:52;;;;;;;1.83;1.63;;;0.50;99.90;;;;;;4976380;28;20516;-77
2024/01/21 10:09:21;;;;;;;3.67;3.33;;;0.50;99.90;;;;;;4969550;28;20263;-80
2024/01/21 10:11:54;;;;;;;4.28;3.17;;;0.60;99.90;;;;;;4976790;28;20610;-80
2024/01/21 10:14:25;;;;;;;4.22;3.25;;;0.60;99.90;;;;;;4978158;28;20215;-78
2024/01/21 10:16:52;;;;;;;2.88;2.67;;;0.60;99.90;;;;;;4977975;28;20487;-82
2024/01/21 10:19:33;;;;;;;2.47;2.33;;;0.70;99.90;;;;;;4977589;28;20215;-79
2024/01/21 10:22:09;;;;;;;1.98;1.88;;;0.70;99.90;;;;;;4980175;28;20499;-81
2024/01/21 10:24:40;;;;;;;7.93;3.80;;;0.80;99.90;;;;;;4980686;28;20250;-78
2024/01/21 10:27:09;;;;;;;6.07;4.40;;;0.80;99.90;;;;;;4953502;28;20206;-79
2024/01/21 10:29:38;;;;;;;1.83;1.73;;;0.80;99.90;;;;;;4984547;28;20203;-79
2024/01/21 10:32:06;;;;;;;2.40;2.30;;;1.00;99.90;;;;;;4982640;28;20269;-80
2024/01/21 10:34:33;;;;;;;4.03;3.72;;;1.10;99.90;;;;;;4973376;28;20235;-80
2024/01/21 10:37:03;;;;;;;3.45;3.22;;;1.20;99.90;;;;;;4978707;28;20500;-80
2024/01/21 10:39:34;;;;;;;2.60;2.05;;;1.30;99.90;;;;;;4982511;28;20218;-82
2024/01/21 10:42:02;;;;;;;1.85;1.75;;;1.40;99.90;;;;;;4971475;28;20566;-80
2024/01/21 10:44:29;;;;;;;0.85;0.85;;;1.70;99.90;;;;;;4976646;28;20218;-78
2024/01/21 10:47:04;;;;;;;3.88;3.67;;;1.90;99.90;;;;;;4979272;28;20207;-81
2024/01/21 10:49:32;;;;;;;2.97;2.78;;;2.20;99.90;;;;;;4966683;28;20306;-78
2024/01/21 10:52:00;;;;;;;3.05;2.95;;;2.40;99.90;;;;;;4964205;28;20212;-78
2024/01/21 10:54:29;;;;;;;0.75;0.75;;;2.50;99.90;;;;;;4977007;28;20222;-80
2024/01/21 10:56:59;;;;;;;0.80;0.80;;;2.80;99.90;;;;;;4963451;28;20358;-81
2024/01/21 10:59:26;;;;;;;0.80;0.80;;;2.80;99.90;;;;;;4971478;28;20211;-81
2024/01/21 11:01:56;;;;;;;0.60;0.60;;;2.60;99.90;;;;;;4979267;28;20218;-80
2024/01/21 11:04:23;;;;;;;0.90;0.90;;;2.70;99.90;;;;;;4974620;28;20269;-83
2024/01/21 11:06:53;;;;;;;1.38;1.38;;;2.60;99.90;;;;;;4968510;28;20234;-81
2024/01/21 11:09:22;;;;;;;0.65;0.65;;;2.50;99.90;;;;;;4966145;28;20584;-81
2024/01/21 11:11:51;;;;;;;0.70;0.70;;;2.50;99.90;;;;;;4975672;28;20206;-81
2024/01/21 11:14:30;;;;;;;1.80;1.67;;;2.40;99.90;;;;;;4968040;28;20227;-81
2024/01/21 11:16:59;;;;;;;1.50;1.40;;;2.50;99.90;;;;;;4979767;28;20206;-80
2024/01/21 11:19:49;;;;;;;0.70;0.70;;;2.40;99.90;;;;;;4993454;28;20530;-79
2024/01/21 11:22:20;;;;;;;1.13;1.13;;;2.40;99.90;;;;;;4984127;28;20278;-81
2024/01/21 11:24:47;;;;;;;2.35;2.15;;;2.20;99.90;;;;;;4987239;28;20214;-80
2024/01/21 11:27:25;;;;;;;0.63;0.63;;;2.20;99.90;;;;;;4976676;28;20223;-78
2024/01/21 11:29:55;;;;;;;1.88;1.77;;;2.20;99.90;;;;;;4988940;28;20211;-81
2024/01/21 11:32:28;;;;;;;2.95;2.72;;;2.40;99.90;;;;;;4971557;28;20403;-78
2024/01/21 11:35:08;;;;;;;2.20;2.10;;;2.40;99.90;;;;;;4972911;28;20214;-80
2024/01/21 11:37:36;;;;;;;3.00;2.67;;;2.60;99.90;;;;;;4978152;28;20221;-79
2024/01/21 11:40:06;;;;;;;0.50;0.50;;;2.70;99.90;;;;;;4961309;28;20234;-79
2024/01/21 11:42:35;;;;;;;3.08;2.85;;;2.80;99.90;;;;;;4982062;28;20221;-80
2024/01/21 11:45:03;;;;;;;1.17;1.17;;;2.70;99.90;;;;;;4980963;28;20269;-81
2024/01/21 11:47:31;;;;;;;6.78;5.68;;;2.90;99.90;;;;;;4981354;28;20443;-79
2024/01/21 11:50:00;;;;;;;0.95;0.93;;;2.90;99.90;;;;;;4984363;28;20214;-79
2024/01/21 11:52:28;;;;;;;1.05;1.05;;;3.00;99.90;;;;;;4969565;28;20447;-79
2024/01/21 11:54:55;;;;;;;1.27;1.27;;;3.10;99.90;;;;;;4983395;28;20306;-80
2024/01/21 11:57:22;;;;;;;0.50;0.50;;;3.10;99.90;;;;;;4976415;28;20282;-78
2024/01/21 11:59:49;;;;;;;1.13;1.13;;;3.00;99.90;;;;;;4981098;28;20439;-79
2024/01/21 12:02:17;;;;;;;1.67;1.63;;;2.80;99.90;;;;;;4977301;28;20245;-76
2024/01/21 12:04:47;;;;;;;2.15;2.05;;;2.80;99.90;;;;;;4980386;28;20215;-78
2024/01/21 12:07:15;;;;;;;2.33;2.22;;;2.80;99.90;;;;;;4981133;28;20261;-78
2024/01/21 12:09:42;;;;;;;3.65;3.35;;;2.70;99.90;;;;;;4965597;28;20203;-80
2024/01/21 12:12:10;;;;;;;0.60;0.60;;;2.70;99.90;;;;;;4979947;28;20535;-81
2024/01/21 12:14:37;;;;;;;5.13;4.72;;;2.50;99.90;;;;;;4974031;28;20238;-80
2024/01/21 12:17:04;;;;;;;0.82;0.82;;;2.40;99.90;;;;;;4976423;28;20233;-79
2024/01/21 12:19:32;;;;;;;2.17;2.08;;;2.40;99.90;;;;;;4982162;28;20211;-80
2024/01/21 12:21:59;;;;;;;1.17;1.17;;;2.40;99.90;;;;;;4970129;28;20245;-80
2024/01/21 12:24:26;;;;;;;3.58;3.38;;;2.30;99.90;;;;;;4976918;28;20360;-77
2024/01/21 12:26:56;;;;;;;0.80;0.80;;;2.30;99.90;;;;;;4979108;28;20207;-77
2024/01/21 12:29:24;;;;;;;0.45;0.45;;;2.20;99.90;;;;;;4976471;28;20266;-79
2024/01/21 12:31:52;;;;;;;3.25;2.97;;;2.30;99.90;;;;;;4968753;28;20219;-78
2024/01/21 12:34:19;;;;;;;0.60;0.60;;;2.30;99.90;;;;;;4981753;28;20237;-79
2024/01/21 12:36:49;;;;;;;3.03;2.65;;;2.30;99.90;;;;;;4979676;28;20221;-79
2024/01/21 12:39:21;;;;;;;0.50;0.50;;;2.30;99.90;;;;;;4981576;28;20301;-80
2024/01/21 12:41:48;;;;;;;2.70;2.47;;;2.40;99.90;;;;;;4971558;28;20211;-80
2024/01/21 12:44:16;;;;;;;1.80;1.70;;;2.40;99.90;;;;;;4981492;28;20230;-77
2024/01/21 12:46:45;;;;;;;4.07;2.67;;;2.40;99.90;;;;;;4981858;28;20234;-78
2024/01/21 12:49:12;;;;;;;1.67;1.58;;;2.50;99.90;;;;;;4978302;28;20212;-79
2024/01/21 12:51:42;;;;;;;0.60;0.60;;;2.40;99.90;;;;;;4977874;28;20211;-79
2024/01/21 12:54:10;;;;;;;0.70;0.70;;;2.50;99.90;;;;;;4957851;28;20234;-79
2024/01/21 12:56:37;;;;;;;0.70;0.70;;;2.30;99.90;;;;;;4988165;28;20263;-81